Time;durP1;ratioP1;P1;durP2;ratioP2;P2;SDS_P1;SDS_P2;PMS_P1;PMS_P2;Temp;Humidity;BMP_temperature;BMP_pressure;BME280_temperature;BME280_humidity;BME280_pressure;Samples;Min_cycle;Max_cycle;Signal;HPM_P1;HPM_P2
2022/12/13 00:01:23;;;;;;;8.23;7.30;;;-9.90;99.90;;;;;;5012379;28;20032;-83
2022/12/13 00:04:03;;;;;;;6.50;6.05;;;-9.90;99.90;;;;;;5051970;28;20125;-82
2022/12/13 00:06:35;;;;;;;11.93;8.20;;;-10.00;99.90;;;;;;5035524;28;20051;-82
2022/12/13 00:09:09;;;;;;;15.77;9.02;;;-10.00;99.90;;;;;;5034579;28;20050;-82
2022/12/13 00:11:55;;;;;;;8.70;7.43;;;-10.00;99.90;;;;;;5041832;28;20126;-82
2022/12/13 00:15:18;;;;;;;10.10;7.03;;;-9.90;99.90;;;;;;5032623;28;20017;-82
2022/12/13 00:18:04;;;;;;;11.63;8.82;;;-10.10;99.90;;;;;;5024396;28;20033;-82
2022/12/13 00:20:47;;;;;;;10.65;9.75;;;-10.10;99.90;;;;;;5014756;28;20049;-82
2022/12/13 00:23:24;;;;;;;10.13;9.32;;;-10.10;99.90;;;;;;5037499;28;20017;-82
2022/12/13 00:26:09;;;;;;;8.73;8.02;;;-10.20;99.90;;;;;;5036847;28;20052;-82
2022/12/13 00:28:40;;;;;;;11.20;8.63;;;-10.10;99.90;;;;;;5038248;28;20049;-82
2022/12/13 00:31:09;;;;;;;19.45;9.68;;;-10.10;99.90;;;;;;5013055;28;20044;-82
2022/12/13 00:33:46;;;;;;;11.93;10.48;;;-10.10;99.90;;;;;;5015651;28;20021;-83
2022/12/13 00:36:34;;;;;;;17.90;10.10;;;-10.00;99.90;;;;;;5032862;28;20018;-82
2022/12/13 00:39:00;;;;;;;13.20;10.95;;;-10.10;99.90;;;;;;5033947;28;20049;-82
2022/12/13 00:41:33;;;;;;;12.35;9.23;;;-10.20;99.90;;;;;;5035311;28;20028;-82
2022/12/13 00:44:03;;;;;;;15.20;9.90;;;-10.20;99.90;;;;;;5040315;28;20033;-82
2022/12/13 00:46:50;;;;;;;23.15;11.10;;;-10.20;99.90;;;;;;5020052;28;20037;-82
2022/12/13 00:49:45;;;;;;;7.93;7.38;;;-10.30;99.90;;;;;;5013198;28;20038;-82
2022/12/13 00:52:15;;;;;;;8.05;7.43;;;-10.30;99.90;;;;;;5032782;28;20052;-81
2022/12/13 00:54:41;;;;;;;12.70;10.80;;;-10.20;99.90;;;;;;5030911;28;20022;-82
2022/12/13 00:57:08;;;;;;;12.57;9.77;;;-10.10;99.90;;;;;;5020041;28;20045;-83
2022/12/13 00:59:43;;;;;;;11.15;10.05;;;-10.10;99.90;;;;;;5041743;28;20020;-83
2022/12/13 01:02:20;;;;;;;17.45;6.53;;;-10.20;99.90;;;;;;5029460;28;20034;-82
2022/12/13 01:04:50;;;;;;;16.27;11.77;;;-10.30;99.90;;;;;;5018491;28;20057;-82
2022/12/13 01:07:55;;;;;;;20.50;11.93;;;-10.30;99.90;;;;;;5022672;28;20060;-82
2022/12/13 01:10:45;;;;;;;7.97;7.40;;;-10.40;99.90;;;;;;5025301;28;20026;-81
2022/12/13 01:13:20;;;;;;;12.80;11.77;;;-10.30;99.90;;;;;;5024849;28;20033;-82
2022/12/13 01:15:48;;;;;;;15.05;9.48;;;-10.20;99.90;;;;;;5037065;28;20045;-82
2022/12/13 01:18:18;;;;;;;41.85;9.45;;;-10.20;99.90;;;;;;5042046;28;20089;-82
2022/12/13 01:20:59;;;;;;;17.58;11.20;;;-10.10;99.90;;;;;;5033879;28;20058;-82
2022/12/13 01:23:42;;;;;;;8.13;7.50;;;-10.30;99.90;;;;;;5037924;28;20120;-82
2022/12/13 01:26:21;;;;;;;11.57;9.05;;;-10.30;99.90;;;;;;5027993;28;20013;-82
2022/12/13 01:28:56;;;;;;;6.10;5.75;;;-10.40;99.90;;;;;;5036258;28;20053;-82
2022/12/13 01:31:26;;;;;;;11.98;10.57;;;-10.30;99.90;;;;;;5023933;28;20045;-82
2022/12/13 01:34:27;;;;;;;12.52;8.90;;;-10.20;99.90;;;;;;5053152;28;20546;-82
2022/12/13 01:37:07;;;;;;;11.23;7.60;;;-10.10;99.90;;;;;;5048368;28;20030;-82
2022/12/13 01:39:34;;;;;;;13.90;12.27;;;-10.00;99.90;;;;;;5043671;28;20048;-82
2022/12/13 01:42:04;;;;;;;12.02;10.98;;;-10.10;99.90;;;;;;5021671;28;20060;-82
2022/12/13 01:45:01;;;;;;;11.38;9.63;;;-10.30;99.90;;;;;;5024328;28;20034;-82
2022/12/13 01:48:07;;;;;;;11.07;9.98;;;-10.40;99.90;;;;;;5024186;28;20026;-82
2022/12/13 01:50:46;;;;;;;6.75;6.07;;;-10.40;99.90;;;;;;5024274;28;20041;-82
2022/12/13 01:53:19;;;;;;;5.75;5.38;;;-10.30;99.90;;;;;;5027671;28;20130;-82
2022/12/13 01:55:55;;;;;;;12.80;9.63;;;-10.30;99.90;;;;;;5030155;28;20377;-82
2022/12/13 01:58:23;;;;;;;7.13;6.53;;;-10.30;99.90;;;;;;5034949;28;20053;-82
2022/12/13 02:00:50;;;;;;;10.57;8.85;;;-10.30;99.90;;;;;;5022636;28;20064;-82
2022/12/13 02:03:18;;;;;;;9.68;8.95;;;-10.20;99.90;;;;;;5060177;28;20021;-82
2022/12/13 02:06:06;;;;;;;8.25;7.63;;;-10.20;99.90;;;;;;5045278;28;20033;-82
2022/12/13 02:08:33;;;;;;;17.27;8.23;;;-10.20;99.90;;;;;;5017268;28;20026;-82
2022/12/13 02:11:03;;;;;;;12.32;11.20;;;-10.20;99.90;;;;;;5035110;28;20046;-82
2022/12/13 02:13:29;;;;;;;10.23;9.23;;;-10.30;99.90;;;;;;5031077;28;20496;-82
2022/12/13 02:16:32;;;;;;;11.63;10.50;;;-10.40;99.90;;;;;;5009320;28;20061;-82
2022/12/13 02:19:44;;;;;;;12.55;10.15;;;-10.40;99.90;;;;;;5033327;28;20077;-82
2022/12/13 02:22:15;;;;;;;9.30;8.32;;;-10.50;99.90;;;;;;5039543;28;20010;-82
2022/12/13 02:25:04;;;;;;;10.57;8.55;;;-10.50;99.90;;;;;;5011468;28;20019;-82
2022/12/13 02:27:40;;;;;;;7.97;7.15;;;-10.50;99.90;;;;;;5021607;28;20046;-82
2022/12/13 02:30:15;;;;;;;8.55;7.93;;;-10.40;99.90;;;;;;5040326;28;20045;-82
2022/12/13 02:32:53;;;;;;;10.20;9.27;;;-10.30;99.90;;;;;;5042978;28;20042;-82
2022/12/13 02:35:34;;;;;;;8.55;7.68;;;-10.20;99.90;;;;;;5052076;28;20033;-82
2022/12/13 02:38:23;;;;;;;8.23;5.53;;;-10.20;99.90;;;;;;5021549;28;20034;-82
2022/12/13 02:40:57;;;;;;;10.07;9.05;;;-10.30;99.90;;;;;;5030267;28;20022;-82
2022/12/13 02:43:28;;;;;;;10.00;8.95;;;-10.30;99.90;;;;;;5013621;28;20026;-82
2022/12/13 02:45:59;;;;;;;9.98;9.25;;;-10.30;99.90;;;;;;5016151;28;20026;-82
2022/12/13 02:48:31;;;;;;;9.48;8.68;;;-10.20;99.90;;;;;;5040136;28;20047;-82
2022/12/13 02:51:00;;;;;;;13.45;9.32;;;-10.30;99.90;;;;;;5034895;28;20018;-82
2022/12/13 02:53:27;;;;;;;7.78;6.97;;;-10.30;99.90;;;;;;5020866;28;20086;-82
2022/12/13 02:55:53;;;;;;;11.95;8.43;;;-10.30;99.90;;;;;;5030026;28;20026;-82
2022/12/13 02:58:28;;;;;;;9.57;8.65;;;-10.10;99.90;;;;;;5030771;28;20034;-82
2022/12/13 03:01:12;;;;;;;12.30;7.72;;;-10.10;99.90;;;;;;5022253;28;20033;-82
2022/12/13 03:03:52;;;;;;;8.75;7.88;;;-9.90;99.90;;;;;;5033817;28;20021;-82
2022/12/13 03:06:43;;;;;;;9.90;8.85;;;-10.00;99.90;;;;;;5031326;28;20492;-82
2022/12/13 03:09:09;;;;;;;6.15;5.68;;;-10.00;99.90;;;;;;5037953;28;20036;-82
2022/12/13 03:14:54;;;;;;;6.05;5.25;;;-10.00;99.90;;;;;;5024956;28;20411;-82
2022/12/13 03:17:22;;;;;;;8.07;6.97;;;-9.90;99.90;;;;;;5035784;28;20022;-82
2022/12/13 03:19:53;;;;;;;10.18;8.68;;;-9.90;99.90;;;;;;5016622;28;20080;-82
2022/12/13 03:22:19;;;;;;;6.07;5.57;;;-9.90;99.90;;;;;;5031660;28;20077;-82
2022/12/13 03:24:45;;;;;;;5.10;4.72;;;-10.00;99.90;;;;;;5032883;28;20046;-82
2022/12/13 03:27:12;;;;;;;12.15;9.90;;;-10.00;99.90;;;;;;5044849;28;20487;-82
2022/12/13 03:29:38;;;;;;;8.52;7.55;;;-10.10;99.90;;;;;;5027002;28;20040;-82
2022/12/13 03:32:05;;;;;;;10.07;7.88;;;-10.30;99.90;;;;;;4903581;28;3124457;-82
2022/12/13 03:34:31;;;;;;;9.95;9.15;;;-10.20;99.90;;;;;;5009460;28;20054;-82
2022/12/13 03:36:57;;;;;;;7.15;6.50;;;-10.30;99.90;;;;;;5007983;28;20037;-82
2022/12/13 03:39:22;;;;;;;17.05;10.40;;;-10.30;99.90;;;;;;5027838;28;20557;-82
2022/12/13 03:41:50;;;;;;;9.80;8.80;;;-10.20;99.90;;;;;;5032307;28;20025;-82
2022/12/13 03:44:16;;;;;;;8.35;6.45;;;-10.10;99.90;;;;;;5020605;28;20022;-82
2022/12/13 03:46:42;;;;;;;16.38;11.30;;;-10.10;99.90;;;;;;5007171;28;20030;-82
2022/12/13 03:49:07;;;;;;;5.97;5.60;;;-10.30;99.90;;;;;;5015452;28;20089;-82
2022/12/13 03:51:33;;;;;;;5.55;5.18;;;-10.30;99.90;;;;;;5035713;28;20106;-82
2022/12/13 03:53:59;;;;;;;9.82;8.82;;;-10.20;99.90;;;;;;5022824;28;20380;-82
2022/12/13 03:56:25;;;;;;;6.43;6.03;;;-10.30;99.90;;;;;;5017911;28;20108;-82
2022/12/13 03:58:52;;;;;;;11.18;9.90;;;-10.30;99.90;;;;;;5031558;28;20044;-82
2022/12/13 04:01:18;;;;;;;10.25;9.18;;;-10.40;99.90;;;;;;5015172;28;20057;-81
2022/12/13 04:03:45;;;;;;;9.13;8.23;;;-10.30;99.90;;;;;;5009845;28;20052;-82
2022/12/13 04:06:12;;;;;;;11.77;9.23;;;-10.30;99.90;;;;;;5031751;28;20041;-82
2022/12/13 04:08:39;;;;;;;9.73;6.68;;;-10.30;99.90;;;;;;5036932;28;20066;-82
2022/12/13 04:13:51;;;;;;;10.55;9.55;;;-10.40;99.90;;;;;;5020271;28;20119;-82
2022/12/13 04:16:16;;;;;;;9.23;7.95;;;-10.40;99.90;;;;;;5009021;28;20052;-82
2022/12/13 04:18:42;;;;;;;13.25;10.73;;;-10.30;99.90;;;;;;5034054;28;20053;-82
2022/12/13 04:21:08;;;;;;;5.55;5.18;;;-10.30;99.90;;;;;;5017087;28;20145;-82
2022/12/13 04:23:34;;;;;;;11.45;8.07;;;-10.30;99.90;;;;;;5009522;28;20018;-82
2022/12/13 04:26:00;;;;;;;6.45;5.75;;;-10.20;99.90;;;;;;5009407;28;20030;-82
2022/12/13 04:28:25;;;;;;;19.15;11.13;;;-10.20;99.90;;;;;;5026814;28;20112;-82
2022/12/13 04:30:52;;;;;;;9.02;8.02;;;-10.20;99.90;;;;;;5024691;28;20420;-82
2022/12/13 04:33:19;;;;;;;14.00;8.32;;;-10.30;99.90;;;;;;5011825;28;20089;-82
2022/12/13 04:35:46;;;;;;;10.02;9.13;;;-10.40;99.90;;;;;;5019324;28;20043;-82
2022/12/13 04:38:12;;;;;;;6.88;6.43;;;-10.50;99.80;;;;;;5022743;28;20053;-82
2022/12/13 04:40:38;;;;;;;8.35;7.55;;;-10.40;99.90;;;;;;5032691;28;20029;-82
2022/12/13 04:43:03;;;;;;;7.90;7.30;;;-10.50;99.90;;;;;;5026506;28;20018;-82
2022/12/13 04:45:30;;;;;;;12.45;10.55;;;-10.40;99.90;;;;;;5010176;28;20035;-82
2022/12/13 04:47:56;;;;;;;8.63;7.63;;;-10.50;99.90;;;;;;5021553;28;20041;-81
2022/12/13 04:50:22;;;;;;;9.68;8.25;;;-10.40;99.90;;;;;;5013402;28;20062;-81
2022/12/13 04:52:48;;;;;;;12.43;8.02;;;-10.40;99.90;;;;;;5032900;28;20052;-82
2022/12/13 04:55:14;;;;;;;12.07;7.53;;;-10.50;99.90;;;;;;5021684;28;20119;-82
2022/12/13 04:57:39;;;;;;;6.25;5.05;;;-10.40;99.90;;;;;;5004313;28;20030;-82
2022/12/13 05:00:08;;;;;;;7.20;6.57;;;-10.50;99.90;;;;;;4996486;28;20037;-83
2022/12/13 05:02:35;;;;;;;5.82;5.35;;;-10.50;99.90;;;;;;5008030;28;20032;-82
2022/12/13 05:05:01;;;;;;;11.85;10.15;;;-10.60;99.90;;;;;;5009930;28;20041;-81
2022/12/13 05:07:26;;;;;;;233.88;37.55;;;-10.50;99.90;;;;;;5005407;28;20041;-82
2022/12/13 05:09:52;;;;;;;7.80;7.10;;;-10.40;99.90;;;;;;5007824;28;20513;-82
2022/12/13 05:12:18;;;;;;;11.68;9.55;;;-10.30;99.90;;;;;;5036002;28;20030;-82
2022/12/13 05:14:46;;;;;;;8.60;7.95;;;-10.30;99.90;;;;;;5024597;28;20064;-82
2022/12/13 05:17:11;;;;;;;9.25;8.27;;;-10.20;99.90;;;;;;5026869;28;20057;-83
2022/12/13 05:19:50;;;;;;;8.95;8.05;;;-10.20;99.90;;;;;;5020464;28;20034;-83
2022/12/13 05:25:58;;;;;;;7.78;6.68;;;-10.10;99.90;;;;;;5042263;28;20044;-83
2022/12/13 05:28:26;;;;;;;9.82;9.02;;;-10.00;99.90;;;;;;5021802;28;20033;-81
